Grand Ruby — 3EIU3 — position and weather

sailwx.info

Track history (hours):
 
Tides and Currents Weather Stations Pressure Air Temp Water Temp Dewpoint Dewpoint Depression Visibility Wind Speed Wind Dir Waves Ship Positions

Grand Ruby

Last reported at 2014-Jul-24 14:33 UTC. Time now 2014-Jul-24 14:39 UTC.
Position N 52°24' E 003°53'.

Length 200 m; draft 7.8 m.

Type: Cargo ship. MMSI: 372399000.

Date/timePositionNaut miles runAvg speedWind from/ knotsBaromVisibWave heightAir tempDewpointWater temp
2014-Jul-24 14:33N 52°24' E 003°53'1717.5
2014-Jul-24 13:33N 52°07' E 003°55'9 9.0
2014-Jul-24 12:34N 51°59' E 004°04'8 8.0
2014-Jul-24 11:34N 51°54' E 004°14'1 0.9
2014-Jul-24 10:31N 51°54' E 004°15'0 0.0
2014-Jul-24 09:31N 51°54' E 004°15'0 0.0
2014-Jul-24 08:31N 51°54' E 004°15'0 0.0
2014-Jul-24 07:31N 51°54' E 004°15'0 0.0
2014-Jul-24 06:31N 51°54' E 004°15'0 0.0
2014-Jul-24 05:31N 51°54' E 004°15'0 0.0
2014-Jul-24 04:31N 51°54' E 004°15'0 0.0
2014-Jul-24 03:28N 51°54' E 004°15'0 0.0
2014-Jul-24 02:31N 51°54' E 004°15'2 2.0
2014-Jul-24 01:33N 51°55' E 004°13'7 7.5
2014-Jul-24 00:33N 51°59' E 004°03'1010.2
2014-Jul-23 23:34N 51°60' E 003°46'1918.5
2014-Jul-23 22:33N 51°54' E 003°18'1818.5
2014-Jul-23 21:33N 51°48' E 002°50'1717.3
2014-Jul-23 20:33N 51°38' E 002°27'1817.6
2014-Jul-23 19:33N 51°23' E 002°12'1616.4
2014-Jul-23 18:33N 51°10' E 001°55'1716.6
2014-Jul-23 17:34N 50°59' E 001°36'1616.0
2014-Jul-23 16:33N 50°44' E 001°25'1716.6
2014-Jul-23 15:33N 50°33' E 001°06'1716.6
2014-Jul-23 14:33N 50°27' E 000°42'1717.1
2014-Jul-23 13:33N 50°21' E 000°16'14216.8
2014-Jul-23 05:07N 50°25' W 003°26'7817.1
2014-Jul-23 00:32N 49°20' W 004°34'1818.7
2014-Jul-22 23:33N 49°06' W 004°52'1918.9
2014-Jul-22 22:32N 48°54' W 005°15'2218.0
2014-Jul-22 21:19N 48°41' W 005°41'3718.1
2014-Jul-22 19:15N 48°07' W 006°07'58117.7
2014-Jul-21 10:28N 38°50' W 009°52'2218.1
2014-Jul-21 09:15N 38°28' W 009°48'1318.6
2014-Jul-21 08:33N 38°16' W 009°44'1717.2
2014-Jul-21 07:33N 37°59' W 009°39'1616.2
2014-Jul-21 06:33N 37°43' W 009°34'1616.4
2014-Jul-21 05:33N 37°27' W 009°29'1716.6
2014-Jul-21 04:33N 37°11' W 009°24'1616.2
2014-Jul-21 03:33N 36°55' W 009°20'1615.9
2014-Jul-21 02:34N 36°44' W 009°06'1716.8
2014-Jul-21 01:33N 36°38' W 008°46'1716.6
2014-Jul-21 00:33N 36°33' W 008°27'2016.6
2014-Jul-20 23:20N 36°26' W 008°03'1316.7
2014-Jul-20 22:33N 36°22' W 007°48'31915.2
2014-Jul-20 01:32N 36°33' W 001°11'1514.9
2014-Jul-20 00:33N 36°36' W 000°52'6114.9
2014-Jul-19 20:28N 36°45' E 000°23'4916.1
2014-Jul-19 17:27N 36°53' E 001°22'3618.2
2014-Jul-19 15:27N 36°58' E 002°07'1416.1
2014-Jul-19 14:33N 37°01' E 002°25'1616.0
2014-Jul-19 13:34N 37°03' E 002°45'1615.9
2014-Jul-19 12:34N 37°05' E 003°05'1515.4
2014-Jul-19 11:34N 37°04' E 003°24'1615.9
2014-Jul-19 10:33N 37°03' E 003°44'1716.6
2014-Jul-19 09:33N 37°03' E 004°05'1716.6
2014-Jul-19 08:33N 37°02' E 004°26'1918.8
2014-Jul-19 07:33N 37°01' E 004°49'1715.2
2014-Jul-19 06:24N 37°01' E 005°11'1916.0
2014-Jul-19 05:15N 36°59' E 005°34'1116.0
2014-Jul-19 04:32N 36°54' E 005°47'7 6.8
2014-Jul-19 03:33N 36°50' E 005°54'0 0.2
2014-Jul-19 01:28N 36°49' E 005°54'0 0.0
2014-Jul-18 20:28N 36°49' E 005°54'0 0.0
2014-Jul-18 19:31N 36°49' E 005°54'0 0.0
2014-Jul-18 18:31N 36°49' E 005°54'0 0.0
2014-Jul-18 17:31N 36°49' E 005°54'0 0.0
2014-Jul-18 16:31N 36°49' E 005°54'0 0.0
2014-Jul-18 15:31N 36°49' E 005°54'0 0.0
2014-Jul-18 14:31N 36°49' E 005°54'0 0.0
2014-Jul-18 13:16N 36°49' E 005°54'0 0.0
2014-Jul-18 12:25N 36°49' E 005°54'0 0.0
2014-Jul-18 11:04N 36°49' E 005°54'0 0.0
2014-Jul-18 10:28N 36°49' E 005°54'0 0.0
2014-Jul-18 09:31N 36°49' E 005°54'0 0.0
2014-Jul-18 07:22N 36°49' E 005°54'0 0.0
2014-Jul-18 06:31N 36°49' E 005°54'0 0.0
2014-Jul-18 05:04N 36°49' E 005°54'0 0.0
2014-Jul-18 04:16N 36°49' E 005°54'0 0.0
2014-Jul-18 03:28N 36°49' E 005°54'0 0.0
2014-Jul-18 02:28N 36°49' E 005°54'0 0.0
2014-Jul-18 01:25N 36°49' E 005°54'0 0.0
2014-Jul-18 00:31N 36°49' E 005°54'0 0.0
2014-Jul-17 23:31N 36°49' E 005°54'0 0.0
2014-Jul-17 22:31N 36°49' E 005°54'0 0.0
2014-Jul-17 21:25N 36°49' E 005°54'0 0.0
2014-Jul-17 20:31N 36°49' E 005°54'0 0.0
2014-Jul-17 19:31N 36°49' E 005°54'0 0.0
2014-Jul-17 18:22N 36°49' E 005°54'0 0.0
2014-Jul-17 17:22N 36°49' E 005°54'0 0.0
2014-Jul-17 16:31N 36°49' E 005°54'0 0.0
2014-Jul-17 15:28N 36°49' E 005°54'0 0.0
2014-Jul-17 14:31N 36°49' E 005°54'0 0.0
2014-Jul-17 13:31N 36°49' E 005°54'0 0.0
2014-Jul-17 12:31N 36°49' E 005°54'0 0.0
2014-Jul-17 11:31N 36°49' E 005°54'0 0.0
2014-Jul-17 10:31N 36°49' E 005°54'0 0.0
2014-Jul-17 09:22N 36°49' E 005°54'0 0.0
2014-Jul-17 08:22N 36°49' E 005°54'0 0.0
2014-Jul-17 07:28N 36°49' E 005°54'0 0.0
2014-Jul-17 06:31N 36°49' E 005°54'0 0.0
2014-Jul-17 05:28N 36°49' E 005°54'0 0.0
2014-Jul-16 04:31N 36°49' E 005°54'0 0.0
2014-Jul-16 03:04N 36°49' E 005°54'0 0.0
2014-Jul-16 01:22N 36°49' E 005°54'0 0.0
2014-Jul-16 00:31N 36°49' E 005°54'0 0.0
2014-Jul-15 23:28N 36°49' E 005°54'0 0.0
2014-Jul-15 22:31N 36°49' E 005°54'0 0.0
2014-Jul-15 21:31N 36°49' E 005°54'0 0.0
2014-Jul-15 20:22N 36°49' E 005°54'0 0.0
2014-Jul-15 17:28N 36°49' E 005°54'0 0.0
2014-Jul-15 04:10N 36°49' E 005°54'0 0.0
2014-Jul-15 03:28N 36°49' E 005°54'0 0.0
2014-Jul-15 00:22N 36°49' E 005°54'0 0.0
2014-Jul-14 23:31N 36°49' E 005°54'0 0.0
2014-Jul-14 22:16N 36°49' E 005°54'0 0.0
2014-Jul-14 21:10N 36°49' E 005°54'0 0.0
2014-Jul-14 20:31N 36°49' E 005°54'0 0.0
2014-Jul-14 19:22N 36°49' E 005°54'0 0.0
2014-Jul-14 17:28N 36°49' E 005°54'0 0.0
2014-Jul-14 16:31N 36°49' E 005°54'0 0.0
2014-Jul-14 15:31N 36°49' E 005°54'  
Track history (hours):
 
Tides and Currents Weather Stations Pressure Air Temp Water Temp Dewpoint Dewpoint Depression Visibility Wind Speed Wind Dir Waves Ship Positions

Grand Ruby

Last reported at 2014-Jul-24 14:33 UTC. Time now 2014-Jul-24 14:39 UTC.
Position N 52°24' E 003°53'.

Length 200 m; draft 7.8 m.

Type: Cargo ship. MMSI: 372399000.

Date/timePositionNaut miles runAvg speedWind from/ knotsBaromVisibWave heightAir tempDewpointWater temp
2014-Jul-24 14:33N 52°24' E 003°53'1717.5
2014-Jul-24 13:33N 52°07' E 003°55'9 9.0
2014-Jul-24 12:34N 51°59' E 004°04'8 8.0
2014-Jul-24 11:34N 51°54' E 004°14'1 0.9
2014-Jul-24 10:31N 51°54' E 004°15'0 0.0
2014-Jul-24 09:31N 51°54' E 004°15'0 0.0
2014-Jul-24 08:31N 51°54' E 004°15'0 0.0
2014-Jul-24 07:31N 51°54' E 004°15'0 0.0
2014-Jul-24 06:31N 51°54' E 004°15'0 0.0
2014-Jul-24 05:31N 51°54' E 004°15'0 0.0
2014-Jul-24 04:31N 51°54' E 004°15'0 0.0
2014-Jul-24 03:28N 51°54' E 004°15'0 0.0
2014-Jul-24 02:31N 51°54' E 004°15'2 2.0
2014-Jul-24 01:33N 51°55' E 004°13'7 7.5
2014-Jul-24 00:33N 51°59' E 004°03'1010.2
2014-Jul-23 23:34N 51°60' E 003°46'1918.5
2014-Jul-23 22:33N 51°54' E 003°18'1818.5
2014-Jul-23 21:33N 51°48' E 002°50'1717.3
2014-Jul-23 20:33N 51°38' E 002°27'1817.6
2014-Jul-23 19:33N 51°23' E 002°12'1616.4
2014-Jul-23 18:33N 51°10' E 001°55'1716.6
2014-Jul-23 17:34N 50°59' E 001°36'1616.0
2014-Jul-23 16:33N 50°44' E 001°25'1716.6
2014-Jul-23 15:33N 50°33' E 001°06'1716.6
2014-Jul-23 14:33N 50°27' E 000°42'1717.1
2014-Jul-23 13:33N 50°21' E 000°16'14216.8
2014-Jul-23 05:07N 50°25' W 003°26'7817.1
2014-Jul-23 00:32N 49°20' W 004°34'1818.7
2014-Jul-22 23:33N 49°06' W 004°52'1918.9
2014-Jul-22 22:32N 48°54' W 005°15'2218.0
2014-Jul-22 21:19N 48°41' W 005°41'3718.1
2014-Jul-22 19:15N 48°07' W 006°07'58117.7
2014-Jul-21 10:28N 38°50' W 009°52'2218.1
2014-Jul-21 09:15N 38°28' W 009°48'1318.6
2014-Jul-21 08:33N 38°16' W 009°44'1717.2
2014-Jul-21 07:33N 37°59' W 009°39'1616.2
2014-Jul-21 06:33N 37°43' W 009°34'1616.4
2014-Jul-21 05:33N 37°27' W 009°29'1716.6
2014-Jul-21 04:33N 37°11' W 009°24'1616.2
2014-Jul-21 03:33N 36°55' W 009°20'1615.9
2014-Jul-21 02:34N 36°44' W 009°06'1716.8
2014-Jul-21 01:33N 36°38' W 008°46'1716.6
2014-Jul-21 00:33N 36°33' W 008°27'2016.6
2014-Jul-20 23:20N 36°26' W 008°03'1316.7
2014-Jul-20 22:33N 36°22' W 007°48'31915.2
2014-Jul-20 01:32N 36°33' W 001°11'1514.9
2014-Jul-20 00:33N 36°36' W 000°52'6114.9
2014-Jul-19 20:28N 36°45' E 000°23'4916.1
2014-Jul-19 17:27N 36°53' E 001°22'3618.2
2014-Jul-19 15:27N 36°58' E 002°07'1416.1
2014-Jul-19 14:33N 37°01' E 002°25'1616.0
2014-Jul-19 13:34N 37°03' E 002°45'1615.9
2014-Jul-19 12:34N 37°05' E 003°05'1515.4
2014-Jul-19 11:34N 37°04' E 003°24'1615.9
2014-Jul-19 10:33N 37°03' E 003°44'1716.6
2014-Jul-19 09:33N 37°03' E 004°05'1716.6
2014-Jul-19 08:33N 37°02' E 004°26'1918.8
2014-Jul-19 07:33N 37°01' E 004°49'1715.2
2014-Jul-19 06:24N 37°01' E 005°11'1916.0
2014-Jul-19 05:15N 36°59' E 005°34'1116.0
2014-Jul-19 04:32N 36°54' E 005°47'7 6.8
2014-Jul-19 03:33N 36°50' E 005°54'0 0.2
2014-Jul-19 01:28N 36°49' E 005°54'0 0.0
2014-Jul-18 20:28N 36°49' E 005°54'0 0.0
2014-Jul-18 19:31N 36°49' E 005°54'0 0.0
2014-Jul-18 18:31N 36°49' E 005°54'0 0.0
2014-Jul-18 17:31N 36°49' E 005°54'0 0.0
2014-Jul-18 16:31N 36°49' E 005°54'0 0.0
2014-Jul-18 15:31N 36°49' E 005°54'0 0.0
2014-Jul-18 14:31N 36°49' E 005°54'0 0.0
2014-Jul-18 13:16N 36°49' E 005°54'0 0.0
2014-Jul-18 12:25N 36°49' E 005°54'0 0.0
2014-Jul-18 11:04N 36°49' E 005°54'0 0.0
2014-Jul-18 10:28N 36°49' E 005°54'0 0.0
2014-Jul-18 09:31N 36°49' E 005°54'0 0.0
2014-Jul-18 07:22N 36°49' E 005°54'0 0.0
2014-Jul-18 06:31N 36°49' E 005°54'0 0.0
2014-Jul-18 05:04N 36°49' E 005°54'0 0.0
2014-Jul-18 04:16N 36°49' E 005°54'0 0.0
2014-Jul-18 03:28N 36°49' E 005°54'0 0.0
2014-Jul-18 02:28N 36°49' E 005°54'0 0.0
2014-Jul-18 01:25N 36°49' E 005°54'0 0.0
2014-Jul-18 00:31N 36°49' E 005°54'0 0.0
2014-Jul-17 23:31N 36°49' E 005°54'0 0.0
2014-Jul-17 22:31N 36°49' E 005°54'0 0.0
2014-Jul-17 21:25N 36°49' E 005°54'0 0.0
2014-Jul-17 20:31N 36°49' E 005°54'0 0.0
2014-Jul-17 19:31N 36°49' E 005°54'0 0.0
2014-Jul-17 18:22N 36°49' E 005°54'0 0.0
2014-Jul-17 17:22N 36°49' E 005°54'0 0.0
2014-Jul-17 16:31N 36°49' E 005°54'0 0.0
2014-Jul-17 15:28N 36°49' E 005°54'0 0.0
2014-Jul-17 14:31N 36°49' E 005°54'0 0.0
2014-Jul-17 13:31N 36°49' E 005°54'0 0.0
2014-Jul-17 12:31N 36°49' E 005°54'0 0.0
2014-Jul-17 11:31N 36°49' E 005°54'0 0.0
2014-Jul-17 10:31N 36°49' E 005°54'0 0.0
2014-Jul-17 09:22N 36°49' E 005°54'0 0.0
2014-Jul-17 08:22N 36°49' E 005°54'0 0.0
2014-Jul-17 07:28N 36°49' E 005°54'0 0.0
2014-Jul-17 06:31N 36°49' E 005°54'0 0.0
2014-Jul-17 05:28N 36°49' E 005°54'0 0.0
2014-Jul-16 04:31N 36°49' E 005°54'0 0.0
2014-Jul-16 03:04N 36°49' E 005°54'0 0.0
2014-Jul-16 01:22N 36°49' E 005°54'0 0.0
2014-Jul-16 00:31N 36°49' E 005°54'0 0.0
2014-Jul-15 23:28N 36°49' E 005°54'0 0.0
2014-Jul-15 22:31N 36°49' E 005°54'0 0.0
2014-Jul-15 21:31N 36°49' E 005°54'0 0.0
2014-Jul-15 20:22N 36°49' E 005°54'0 0.0
2014-Jul-15 17:28N 36°49' E 005°54'0 0.0
2014-Jul-15 04:10N 36°49' E 005°54'0 0.0
2014-Jul-15 03:28N 36°49' E 005°54'0 0.0
2014-Jul-15 00:22N 36°49' E 005°54'0 0.0
2014-Jul-14 23:31N 36°49' E 005°54'0 0.0
2014-Jul-14 22:16N 36°49' E 005°54'0 0.0
2014-Jul-14 21:10N 36°49' E 005°54'0 0.0
2014-Jul-14 20:31N 36°49' E 005°54'0 0.0
2014-Jul-14 19:22N 36°49' E 005°54'0 0.0
2014-Jul-14 17:28N 36°49' E 005°54'0 0.0
2014-Jul-14 16:31N 36°49' E 005°54'0 0.0
2014-Jul-14 15:31N 36°49' E 005°54'  

Dump ship's entire track history